Time;durP1;ratioP1;P1;durP2;ratioP2;P2;SDS_P1;SDS_P2;PMS_P1;PMS_P2;Temp;Humidity;BMP_temperature;BMP_pressure;BME280_temperature;BME280_humidity;BME280_pressure;Samples;Min_cycle;Max_cycle;Signal;HPM_P1;HPM_P2
2021/09/03 00:01:20;;;;;;;35.58;21.75;;;15.40;77.50;;;;;;5029876;28;20585;-84
2021/09/03 00:03:47;;;;;;;39.08;23.90;;;15.40;77.50;;;;;;5028415;28;20115;-84
2021/09/03 00:06:14;;;;;;;44.65;24.25;;;15.30;77.50;;;;;;5029937;28;20104;-84
2021/09/03 00:08:41;;;;;;;39.00;24.23;;;15.30;77.60;;;;;;5014002;28;20046;-84
2021/09/03 00:11:08;;;;;;;37.10;24.58;;;15.30;77.70;;;;;;5027554;28;20050;-83
2021/09/03 00:13:35;;;;;;;42.50;24.50;;;15.20;77.70;;;;;;5029717;28;20104;-84
2021/09/03 00:16:02;;;;;;;36.72;21.52;;;15.20;77.90;;;;;;5029710;28;20053;-84
2021/09/03 00:18:30;;;;;;;40.75;24.77;;;15.20;77.90;;;;;;5029772;28;20041;-84
2021/09/03 00:20:57;;;;;;;37.40;23.75;;;15.20;77.90;;;;;;5029649;28;20045;-85
2021/09/03 00:23:23;;;;;;;37.00;24.08;;;15.20;77.90;;;;;;5031631;28;20585;-84
2021/09/03 00:25:50;;;;;;;37.78;23.25;;;15.20;77.90;;;;;;5029172;28;20470;-84
2021/09/03 00:28:17;;;;;;;42.05;25.35;;;15.20;78.00;;;;;;5028416;28;20037;-84
2021/09/03 00:30:44;;;;;;;36.80;25.35;;;15.20;78.00;;;;;;5029524;28;20053;-83
2021/09/03 00:33:11;;;;;;;41.65;25.88;;;15.10;77.90;;;;;;5029616;28;20408;-83
2021/09/03 00:35:39;;;;;;;41.95;24.90;;;15.10;78.10;;;;;;5014267;28;20409;-84
2021/09/03 00:38:06;;;;;;;40.95;24.75;;;15.10;78.20;;;;;;5030139;28;20053;-83
2021/09/03 00:40:33;;;;;;;39.25;25.42;;;15.10;78.20;;;;;;5032854;28;20053;-84
2021/09/03 00:43:00;;;;;;;39.90;26.17;;;15.10;78.10;;;;;;5031498;28;20103;-83
2021/09/03 00:45:27;;;;;;;40.40;25.05;;;15.00;78.00;;;;;;5032964;28;20049;-84
2021/09/03 00:47:54;;;;;;;44.35;24.02;;;15.10;78.00;;;;;;5033160;28;20500;-83
2021/09/03 00:50:21;;;;;;;38.83;23.58;;;15.00;78.00;;;;;;5032849;28;20060;-83
2021/09/03 00:52:48;;;;;;;37.80;24.25;;;15.00;77.90;;;;;;5032818;28;20056;-83
2021/09/03 00:55:16;;;;;;;36.92;24.05;;;15.00;77.80;;;;;;5032349;28;20045;-83
2021/09/03 00:57:43;;;;;;;38.88;24.42;;;14.90;77.80;;;;;;5032790;28;20049;-83
2021/09/03 01:00:10;;;;;;;37.65;24.17;;;14.90;77.80;;;;;;5017281;28;20069;-83
2021/09/03 01:02:37;;;;;;;38.42;25.98;;;14.90;77.70;;;;;;5030810;28;20507;-83
2021/09/03 01:05:05;;;;;;;36.45;23.35;;;14.90;77.80;;;;;;5032462;28;20095;-83
2021/09/03 01:07:33;;;;;;;42.78;25.83;;;14.90;78.00;;;;;;5031488;28;20048;-83
2021/09/03 01:09:59;;;;;;;36.95;24.95;;;14.90;78.00;;;;;;5032182;28;20049;-83
2021/09/03 01:12:26;;;;;;;49.28;28.67;;;14.80;77.90;;;;;;5032451;28;20534;-83
2021/09/03 01:14:53;;;;;;;42.67;26.73;;;14.80;78.00;;;;;;5033039;28;20049;-83
2021/09/03 01:17:20;;;;;;;40.17;26.42;;;14.80;78.20;;;;;;5032397;28;20104;-83
2021/09/03 01:19:50;;;;;;;37.60;26.50;;;14.70;78.30;;;;;;5032479;28;20049;-83
2021/09/03 01:22:23;;;;;;;40.95;27.08;;;14.80;78.30;;;;;;5030456;28;20049;-83
2021/09/03 01:24:50;;;;;;;39.53;26.73;;;14.70;78.30;;;;;;5012884;28;20053;-83
2021/09/03 01:27:17;;;;;;;45.65;28.65;;;14.70;78.20;;;;;;5032304;28;20048;-83
2021/09/03 01:29:44;;;;;;;45.72;30.83;;;14.70;78.40;;;;;;5033385;28;20467;-83
2021/09/03 01:32:11;;;;;;;45.92;28.48;;;14.60;78.70;;;;;;5032808;28;20042;-83
2021/09/03 01:34:38;;;;;;;44.95;29.15;;;14.60;78.90;;;;;;5031994;28;20115;-83
2021/09/03 01:37:05;;;;;;;42.40;27.67;;;14.60;78.90;;;;;;5031776;28;20053;-83
2021/09/03 01:39:32;;;;;;;40.40;27.20;;;14.60;79.00;;;;;;5031978;28;20474;-83
2021/09/03 01:41:58;;;;;;;46.90;30.38;;;14.60;79.00;;;;;;5031949;28;20389;-83
2021/09/03 01:44:25;;;;;;;39.63;27.73;;;14.50;78.90;;;;;;5033743;28;20458;-83
2021/09/03 01:46:53;;;;;;;33.50;24.70;;;14.50;79.00;;;;;;5030472;28;20396;-83
2021/09/03 01:49:20;;;;;;;35.83;25.80;;;14.50;78.90;;;;;;5030767;28;20049;-83
2021/09/03 01:51:47;;;;;;;41.13;27.90;;;14.50;78.90;;;;;;5031307;28;20046;-83
2021/09/03 01:54:13;;;;;;;43.53;27.80;;;14.50;78.70;;;;;;5031618;28;20081;-83
2021/09/03 01:56:40;;;;;;;44.55;29.67;;;14.50;78.70;;;;;;5033555;28;20045;-83
2021/09/03 01:59:07;;;;;;;40.30;27.92;;;14.50;78.60;;;;;;5032024;28;20392;-83
2021/09/03 02:01:34;;;;;;;42.33;27.70;;;14.50;78.60;;;;;;5030013;28;20095;-83
2021/09/03 02:04:01;;;;;;;35.38;25.55;;;14.50;78.60;;;;;;5031564;28;20045;-83
2021/09/03 02:06:28;;;;;;;42.97;26.73;;;14.40;78.50;;;;;;5031270;28;20104;-82
2021/09/03 02:08:55;;;;;;;37.13;24.38;;;14.40;78.40;;;;;;5031487;28;20041;-82
2021/09/03 02:11:22;;;;;;;37.42;25.20;;;14.40;78.30;;;;;;5033496;28;20107;-82
2021/09/03 02:13:49;;;;;;;37.63;26.30;;;14.40;78.30;;;;;;5031269;28;20041;-83
2021/09/03 02:16:16;;;;;;;42.95;25.88;;;14.40;78.20;;;;;;5030991;28;20049;-84
2021/09/03 02:18:43;;;;;;;47.30;25.85;;;14.40;78.10;;;;;;5031293;28;20132;-84
2021/09/03 02:21:10;;;;;;;38.05;26.90;;;14.40;78.10;;;;;;5015317;28;20093;-84
2021/09/03 02:23:37;;;;;;;39.30;25.90;;;14.40;78.10;;;;;;5033383;28;20054;-84
2021/09/03 02:26:04;;;;;;;35.33;25.33;;;14.40;78.10;;;;;;5029789;28;20500;-84
2021/09/03 02:28:31;;;;;;;37.90;26.85;;;14.40;78.00;;;;;;5030992;28;20515;-83
2021/09/03 02:30:58;;;;;;;36.63;25.63;;;14.40;77.90;;;;;;5030984;28;20049;-83
2021/09/03 02:33:25;;;;;;;42.53;29.20;;;14.30;77.90;;;;;;5030998;28;20042;-83
2021/09/03 02:35:52;;;;;;;40.63;29.90;;;14.30;78.00;;;;;;5031144;28;20049;-83
2021/09/03 02:38:19;;;;;;;43.80;30.33;;;14.30;78.00;;;;;;5032593;28;20050;-83
2021/09/03 02:40:45;;;;;;;46.35;30.83;;;14.30;78.00;;;;;;5030939;28;20064;-83
2021/09/03 02:43:12;;;;;;;51.13;31.67;;;14.20;78.10;;;;;;5030552;28;20103;-83
2021/09/03 02:45:39;;;;;;;42.17;29.80;;;14.20;78.30;;;;;;5030634;28;20054;-83
2021/09/03 02:48:06;;;;;;;49.50;34.33;;;14.20;78.30;;;;;;5030674;28;20053;-83
2021/09/03 02:50:33;;;;;;;47.50;34.00;;;14.20;78.30;;;;;;5032548;28;20057;-83
2021/09/03 02:53:00;;;;;;;54.80;35.90;;;14.10;78.30;;;;;;5030517;28;20053;-83
2021/09/03 02:55:27;;;;;;;53.75;33.45;;;14.10;78.70;;;;;;5030572;28;20046;-83
2021/09/03 02:57:55;;;;;;;42.20;30.45;;;14.10;78.90;;;;;;5030492;28;20532;-83
2021/09/03 03:00:23;;;;;;;43.20;29.38;;;14.10;79.00;;;;;;5030292;28;20103;-83
2021/09/03 03:02:52;;;;;;;46.33;31.02;;;14.00;78.90;;;;;;5031632;28;20519;-83
2021/09/03 03:05:21;;;;;;;43.63;30.50;;;14.10;78.80;;;;;;5029676;28;20504;-82
2021/09/03 03:07:48;;;;;;;41.78;27.33;;;14.00;78.70;;;;;;5030299;28;20111;-83
2021/09/03 03:10:16;;;;;;;47.65;32.40;;;14.00;78.60;;;;;;5030250;28;20566;-83
2021/09/03 03:12:42;;;;;;;46.90;30.50;;;14.00;78.60;;;;;;5030500;28;20052;-82
2021/09/03 03:15:10;;;;;;;46.13;30.33;;;14.00;78.60;;;;;;5014698;28;20102;-83
2021/09/03 03:17:37;;;;;;;42.92;28.55;;;14.00;78.50;;;;;;5028077;28;20099;-83
2021/09/03 03:20:05;;;;;;;43.20;32.15;;;14.00;78.40;;;;;;5028423;28;20453;-83
2021/09/03 03:22:31;;;;;;;48.22;32.42;;;13.90;78.40;;;;;;5030040;28;20471;-83
2021/09/03 03:24:58;;;;;;;44.10;31.65;;;13.90;78.50;;;;;;5030065;28;20049;-83
2021/09/03 03:27:26;;;;;;;45.95;33.25;;;13.90;78.40;;;;;;5030192;28;20048;-83
2021/09/03 03:29:52;;;;;;;42.17;30.50;;;13.90;78.40;;;;;;5030608;28;20064;-83
2021/09/03 03:32:19;;;;;;;49.88;32.28;;;13.90;78.30;;;;;;5031878;28;20504;-83
2021/09/03 03:34:48;;;;;;;45.33;32.33;;;13.90;78.20;;;;;;5029606;28;20490;-83
2021/09/03 03:37:15;;;;;;;47.25;32.00;;;13.90;78.20;;;;;;5030001;28;20042;-83
2021/09/03 03:39:42;;;;;;;46.88;32.00;;;13.90;78.30;;;;;;5030136;28;20053;-83
2021/09/03 03:42:09;;;;;;;36.13;28.55;;;13.90;78.30;;;;;;5011974;28;20116;-83
2021/09/03 03:44:36;;;;;;;45.80;32.97;;;13.90;78.30;;;;;;5031886;28;20053;-83
2021/09/03 03:47:03;;;;;;;40.08;28.42;;;13.90;78.30;;;;;;5029793;28;20099;-83
2021/09/03 03:49:29;;;;;;;42.10;32.78;;;13.80;78.20;;;;;;5029606;28;20099;-83
2021/09/03 03:51:56;;;;;;;43.63;33.80;;;13.80;78.20;;;;;;5029912;28;20470;-83
2021/09/03 03:54:23;;;;;;;42.33;31.45;;;13.80;78.20;;;;;;5029876;28;20068;-83
2021/09/03 03:56:50;;;;;;;42.92;31.23;;;13.70;78.30;;;;;;5030845;28;20103;-83
2021/09/03 03:59:17;;;;;;;45.85;30.92;;;13.70;78.20;;;;;;5029604;28;20053;-83
2021/09/03 04:01:44;;;;;;;41.10;30.23;;;13.70;78.20;;;;;;5029643;28;20554;-83
2021/09/03 04:04:12;;;;;;;41.95;30.90;;;13.70;78.20;;;;;;5029574;28;20099;-83
2021/09/03 04:06:38;;;;;;;39.95;29.55;;;13.60;78.10;;;;;;5029835;28;20508;-83
2021/09/03 04:09:05;;;;;;;43.25;31.23;;;13.70;78.10;;;;;;5029638;28;20061;-83
2021/09/03 04:11:32;;;;;;;41.38;29.48;;;13.60;78.00;;;;;;5032315;28;20060;-83
2021/09/03 04:13:59;;;;;;;44.20;31.35;;;13.60;78.00;;;;;;5032064;28;20053;-83
2021/09/03 04:16:26;;;;;;;41.90;32.03;;;13.60;78.10;;;;;;5032993;28;20471;-83
2021/09/03 04:18:53;;;;;;;42.25;31.30;;;13.50;78.10;;;;;;5033525;28;20091;-83
2021/09/03 04:21:19;;;;;;;46.00;31.88;;;13.50;78.00;;;;;;5032366;28;20053;-83
2021/09/03 04:23:46;;;;;;;60.85;36.35;;;13.50;78.10;;;;;;5034773;28;20511;-83
2021/09/03 04:26:13;;;;;;;48.65;35.47;;;13.50;78.10;;;;;;5032022;28;20045;-83
2021/09/03 04:28:40;;;;;;;54.88;38.58;;;13.50;78.20;;;;;;5033263;28;20104;-83
2021/09/03 04:31:07;;;;;;;49.00;35.33;;;13.50;78.40;;;;;;5032897;28;20049;-83
2021/09/03 04:33:34;;;;;;;48.88;35.08;;;13.50;78.50;;;;;;5033166;28;20041;-83
2021/09/03 04:36:01;;;;;;;44.45;32.97;;;13.40;78.60;;;;;;5033337;28;20120;-83
2021/09/03 04:38:28;;;;;;;41.70;30.25;;;13.40;78.70;;;;;;5034137;28;20566;-83
2021/09/03 04:40:56;;;;;;;41.63;30.90;;;13.40;78.60;;;;;;5033100;28;20573;-83
2021/09/03 04:43:23;;;;;;;37.65;29.00;;;13.40;78.50;;;;;;5032784;28;20049;-83
2021/09/03 04:45:50;;;;;;;44.60;33.13;;;13.40;78.50;;;;;;5032333;28;20049;-83
2021/09/03 04:48:17;;;;;;;39.25;29.95;;;13.40;78.40;;;;;;5032957;28;20045;-83
2021/09/03 04:50:44;;;;;;;51.05;34.60;;;13.40;78.40;;;;;;5034236;28;20107;-83
2021/09/03 04:53:11;;;;;;;41.38;31.05;;;13.40;78.30;;;;;;5033590;28;20091;-83
2021/09/03 04:55:38;;;;;;;46.08;33.13;;;13.40;78.30;;;;;;5032658;28;20049;-83
2021/09/03 04:58:05;;;;;;;43.53;31.75;;;13.40;78.20;;;;;;5032567;28;20041;-83
2021/09/03 05:00:31;;;;;;;48.08;33.38;;;13.40;78.20;;;;;;5031281;28;20577;-83
2021/09/03 05:02:58;;;;;;;46.28;33.78;;;13.40;78.10;;;;;;5032695;28;20052;-83
2021/09/03 05:05:25;;;;;;;42.38;31.30;;;13.40;78.10;;;;;;5034581;28;20045;-83
2021/09/03 05:07:52;;;;;;;39.13;30.70;;;13.30;78.10;;;;;;5005294;28;20054;-83
2021/09/03 05:10:19;;;;;;;43.88;31.80;;;13.30;78.10;;;;;;5023960;28;20128;-82
2021/09/03 05:12:46;;;;;;;43.15;32.00;;;13.30;78.10;;;;;;5033456;28;20045;-83
2021/09/03 05:15:18;;;;;;;44.53;33.47;;;13.30;78.10;;;;;;5037646;28;20107;-83
2021/09/03 05:17:50;;;;;;;50.20;37.08;;;13.20;78.20;;;;;;5017373;28;20051;-83
2021/09/03 05:20:18;;;;;;;50.92;36.50;;;13.20;78.30;;;;;;5029087;28;20053;-83
2021/09/03 05:22:45;;;;;;;46.45;33.85;;;13.20;78.40;;;;;;5026933;28;20050;-83
2021/09/03 05:25:14;;;;;;;55.70;40.38;;;13.20;78.60;;;;;;5027222;28;20041;-83
2021/09/03 05:27:42;;;;;;;50.22;37.00;;;13.20;78.80;;;;;;5015777;28;20129;-84
2021/09/03 05:30:09;;;;;;;50.53;35.55;;;13.10;79.00;;;;;;5014171;28;20045;-82
2021/09/03 05:32:37;;;;;;;63.13;40.53;;;13.10;79.00;;;;;;5018211;28;20054;-83
2021/09/03 05:35:05;;;;;;;56.58;39.92;;;13.10;79.10;;;;;;5018250;28;20042;-84
2021/09/03 05:37:34;;;;;;;59.97;40.58;;;13.10;79.20;;;;;;5018296;28;20057;-84
2021/09/03 05:40:01;;;;;;;53.03;35.58;;;13.10;79.30;;;;;;5018303;28;20060;-83
2021/09/03 05:42:28;;;;;;;49.20;37.63;;;13.10;79.30;;;;;;5015476;28;20108;-83
2021/09/03 05:44:55;;;;;;;52.58;35.88;;;13.10;79.40;;;;;;4996638;28;20459;-84
2021/09/03 05:47:22;;;;;;;59.85;38.72;;;13.10;79.50;;;;;;5017889;28;20049;-82
2021/09/03 05:49:49;;;;;;;58.30;41.47;;;13.10;79.50;;;;;;5013531;28;20519;-84
2021/09/03 05:52:16;;;;;;;70.53;44.58;;;13.00;79.60;;;;;;5014733;28;20057;-83
2021/09/03 05:54:45;;;;;;;57.08;40.75;;;13.10;79.90;;;;;;5018192;28;20049;-82
2021/09/03 05:57:12;;;;;;;59.42;40.55;;;13.00;80.10;;;;;;5013332;28;20123;-83
2021/09/03 05:59:39;;;;;;;81.28;47.45;;;13.10;80.30;;;;;;5029419;28;20500;-86
2021/09/03 06:02:06;;;;;;;80.03;47.35;;;13.10;80.60;;;;;;5027080;28;20053;-83
2021/09/03 06:04:33;;;;;;;76.38;48.50;;;13.10;80.90;;;;;;5018035;28;20056;-84
2021/09/03 06:07:00;;;;;;;73.47;45.72;;;13.10;81.00;;;;;;5015757;28;20057;-84
2021/09/03 06:09:27;;;;;;;59.30;42.38;;;13.20;81.10;;;;;;5013073;28;20115;-84
2021/09/03 06:11:55;;;;;;;62.50;42.95;;;13.20;81.20;;;;;;5011787;28;20045;-83
2021/09/03 06:14:22;;;;;;;71.90;47.97;;;13.20;81.20;;;;;;5013258;28;20049;-84
2021/09/03 06:16:50;;;;;;;67.93;42.80;;;13.30;81.30;;;;;;5012720;28;20532;-84
2021/09/03 06:19:17;;;;;;;63.83;43.88;;;13.30;81.40;;;;;;4997305;28;20050;-84
2021/09/03 06:21:44;;;;;;;68.15;44.42;;;13.30;81.50;;;;;;5012597;28;20058;-85
2021/09/03 06:27:02;;;;;;;59.70;42.15;;;13.40;81.50;;;;;;5030148;28;20061;-84
2021/09/03 06:32:19;;;;;;;64.03;41.90;;;13.50;81.50;;;;;;5028060;28;20104;-84
2021/09/03 06:35:01;;;;;;;70.68;41.85;;;13.50;81.60;;;;;;5031085;28;20046;-83
2021/09/03 06:37:30;;;;;;;50.55;36.38;;;13.50;81.60;;;;;;5022127;28;20504;-85
2021/09/03 06:39:57;;;;;;;57.95;40.55;;;13.50;81.70;;;;;;5016274;28;20116;-84
2021/09/03 06:42:25;;;;;;;54.75;39.25;;;13.50;81.70;;;;;;5027379;28;20111;-84
2021/09/03 06:44:52;;;;;;;53.00;38.40;;;13.50;81.70;;;;;;4995156;28;20092;-84
2021/09/03 06:47:19;;;;;;;47.88;35.85;;;13.60;81.80;;;;;;5019006;28;20111;-83
2021/09/03 06:49:46;;;;;;;53.55;36.33;;;13.60;81.80;;;;;;5020462;28;20053;-84
2021/09/03 06:52:14;;;;;;;56.42;38.40;;;13.70;81.80;;;;;;5026861;28;20058;-84
2021/09/03 06:54:41;;;;;;;48.42;36.78;;;13.70;81.90;;;;;;5002331;28;20056;-83
2021/09/03 06:57:08;;;;;;;49.78;36.55;;;13.80;81.90;;;;;;4995828;28;20065;-83
2021/09/03 06:59:35;;;;;;;45.47;32.53;;;13.80;81.90;;;;;;5016998;28;20104;-83
2021/09/03 07:02:02;;;;;;;62.85;43.45;;;13.90;82.00;;;;;;5031201;28;20050;-83
2021/09/03 07:04:29;;;;;;;56.20;39.03;;;13.90;81.90;;;;;;5021265;28;20057;-83
2021/09/03 07:06:57;;;;;;;61.17;39.92;;;13.90;82.00;;;;;;5004515;28;20045;-83
2021/09/03 07:09:44;;;;;;;60.28;40.88;;;14.00;82.00;;;;;;5030433;28;20761;-89
2021/09/03 07:12:11;;;;;;;78.05;46.25;;;14.00;82.00;;;;;;5012131;28;20526;-89
2021/09/03 07:14:38;;;;;;;72.68;47.22;;;14.10;82.10;;;;;;5012773;28;20412;-88
2021/09/03 07:17:06;;;;;;;74.40;46.95;;;14.20;82.20;;;;;;4999281;28;20507;-90
2021/09/03 07:19:34;;;;;;;79.10;49.33;;;14.20;82.20;;;;;;4998413;28;20046;-88
2021/09/03 07:22:05;;;;;;;77.53;47.50;;;14.30;82.30;;;;;;4996262;28;20120;-89
2021/09/03 07:24:33;;;;;;;78.30;48.45;;;14.40;82.40;;;;;;4995824;28;20053;-88
2021/09/03 07:27:00;;;;;;;79.00;47.90;;;14.40;82.40;;;;;;5012597;28;20099;-89
2021/09/03 07:29:27;;;;;;;76.28;49.75;;;14.40;82.50;;;;;;5027468;28;20049;-88
2021/09/03 07:31:54;;;;;;;81.15;50.72;;;14.40;82.50;;;;;;5015039;28;20120;-89
2021/09/03 07:34:21;;;;;;;69.90;46.85;;;14.50;82.50;;;;;;5018533;28;20561;-89
2021/09/03 07:36:48;;;;;;;74.80;48.22;;;14.50;82.60;;;;;;5011671;28;20046;-88
2021/09/03 07:39:19;;;;;;;78.45;48.38;;;14.60;82.60;;;;;;5028320;28;20466;-88
2021/09/03 07:41:46;;;;;;;57.85;37.10;;;14.60;82.70;;;;;;5014579;28;20432;-88
2021/09/03 07:44:14;;;;;;;88.65;50.78;;;14.70;82.80;;;;;;5011321;28;20409;-89
2021/09/03 07:46:41;;;;;;;87.68;52.75;;;14.80;82.90;;;;;;5010842;28;20416;-89
2021/09/03 07:49:10;;;;;;;85.25;52.17;;;14.90;82.90;;;;;;5020467;28;20128;-90
2021/09/03 07:51:36;;;;;;;114.07;64.57;;;14.90;83.00;;;;;;5033378;28;20060;-88
2021/09/03 07:54:04;;;;;;;102.32;60.17;;;15.00;83.00;;;;;;5015738;28;20045;-88
2021/09/03 07:56:31;;;;;;;99.60;60.63;;;15.10;83.20;;;;;;5016452;28;20167;-89
2021/09/03 07:58:57;;;;;;;106.97;63.30;;;15.20;83.30;;;;;;5016310;28;20475;-90
2021/09/03 08:01:24;;;;;;;108.13;62.08;;;15.30;83.40;;;;;;5011358;28;20459;-90
2021/09/03 08:03:52;;;;;;;117.85;65.15;;;15.40;83.50;;;;;;5016156;28;20112;-88
2021/09/03 08:06:19;;;;;;;105.47;62.42;;;15.40;83.40;;;;;;5029710;28;20050;-88
2021/09/03 08:08:46;;;;;;;107.35;63.95;;;15.50;83.30;;;;;;5033602;28;20049;-88
2021/09/03 08:11:13;;;;;;;98.15;62.20;;;15.60;83.30;;;;;;5031170;28;20045;-88
2021/09/03 08:13:40;;;;;;;92.50;57.97;;;15.70;83.30;;;;;;5032822;28;20053;-87
2021/09/03 08:16:07;;;;;;;69.47;47.05;;;15.80;83.20;;;;;;5026402;28;20042;-88
2021/09/03 08:18:35;;;;;;;96.88;56.55;;;15.90;83.10;;;;;;5020650;28;20132;-89
2021/09/03 08:21:02;;;;;;;92.65;53.90;;;16.00;83.00;;;;;;5017990;28;20064;-92
2021/09/03 08:23:29;;;;;;;83.93;54.80;;;16.10;83.00;;;;;;5002672;28;20053;-92
2021/09/03 08:25:56;;;;;;;81.30;53.72;;;16.20;82.90;;;;;;5011887;28;20045;-90
2021/09/03 08:28:23;;;;;;;76.82;50.40;;;16.30;82.80;;;;;;5027235;28;20100;-91
2021/09/03 08:30:49;;;;;;;70.88;47.38;;;16.40;82.60;;;;;;5015689;28;20046;-92
2021/09/03 08:33:16;;;;;;;87.57;50.83;;;16.40;82.40;;;;;;4998566;28;20054;-91
2021/09/03 08:35:43;;;;;;;75.57;50.33;;;16.60;82.20;;;;;;5030108;28;20142;-90
2021/09/03 08:38:10;;;;;;;71.38;48.38;;;16.60;81.80;;;;;;5014336;28;20057;-91
2021/09/03 08:40:37;;;;;;;78.32;47.78;;;16.80;81.70;;;;;;5022873;28;20108;-91
2021/09/03 08:43:05;;;;;;;65.90;45.15;;;16.90;81.60;;;;;;4972836;28;1260158;-89
2021/09/03 08:45:32;;;;;;;73.60;47.78;;;17.00;81.30;;;;;;5016668;28;20045;-89
2021/09/03 08:47:59;;;;;;;60.40;44.40;;;17.10;81.00;;;;;;4999901;28;20054;-89
2021/09/03 08:50:26;;;;;;;60.13;41.05;;;17.20;80.60;;;;;;5019699;28;20112;-90
2021/09/03 08:52:55;;;;;;;65.90;43.08;;;17.40;80.30;;;;;;5011994;28;20104;-90
2021/09/03 08:55:22;;;;;;;71.20;43.17;;;17.50;80.00;;;;;;4998396;28;20045;-91
2021/09/03 08:57:49;;;;;;;60.67;40.63;;;17.50;79.50;;;;;;4997827;28;20049;-91
2021/09/03 09:00:26;;;;;;;66.47;44.35;;;17.70;79.20;;;;;;4998565;28;20046;-91
2021/09/03 09:03:10;;;;;;;59.20;42.47;;;17.80;78.90;;;;;;5016021;28;20076;-90
2021/09/03 09:05:59;;;;;;;60.65;40.80;;;17.90;78.90;;;;;;5017712;28;20053;-91
2021/09/03 09:08:28;;;;;;;58.50;40.70;;;18.10;78.20;;;;;;5011599;28;20415;-92
2021/09/03 09:11:10;;;;;;;56.97;40.38;;;18.20;77.80;;;;;;4999883;28;20050;-90
2021/09/03 09:13:41;;;;;;;63.42;41.65;;;18.40;77.50;;;;;;5015221;28;20046;-91
2021/09/03 09:16:12;;;;;;;60.53;41.22;;;18.40;77.30;;;;;;5019104;28;20416;-89
2021/09/03 09:18:44;;;;;;;49.53;36.78;;;18.50;77.00;;;;;;5013653;28;20053;-90
2021/09/03 09:21:14;;;;;;;59.60;41.25;;;18.70;76.10;;;;;;5018171;28;20119;-89
2021/09/03 09:23:45;;;;;;;52.83;39.40;;;18.80;75.80;;;;;;5015385;28;20050;-91
2021/09/03 09:26:14;;;;;;;50.70;36.47;;;18.90;75.40;;;;;;5031481;28;20049;-90
2021/09/03 09:28:41;;;;;;;50.08;35.22;;;19.10;75.10;;;;;;5034813;28;20049;-90
2021/09/03 09:31:09;;;;;;;49.55;35.22;;;19.20;74.70;;;;;;5016881;28;20053;-91
2021/09/03 09:33:36;;;;;;;51.15;35.05;;;19.30;74.30;;;;;;5016667;28;20136;-92
2021/09/03 09:36:04;;;;;;;48.25;36.08;;;19.40;74.00;;;;;;5014305;28;20115;-90
2021/09/03 09:38:34;;;;;;;47.00;34.15;;;19.50;73.80;;;;;;5016043;28;20464;-90
2021/09/03 09:41:04;;;;;;;43.10;33.65;;;19.60;73.70;;;;;;5015328;28;20053;-91
2021/09/03 09:43:43;;;;;;;48.10;33.05;;;19.80;73.70;;;;;;5013110;28;20108;-90
2021/09/03 09:46:25;;;;;;;40.25;29.98;;;20.00;73.10;;;;;;5009595;28;20042;-90
2021/09/03 09:48:57;;;;;;;42.83;31.80;;;20.10;72.00;;;;;;5003565;28;20473;-91
2021/09/03 09:51:40;;;;;;;40.47;28.33;;;20.30;71.70;;;;;;5011667;28;20105;-90
2021/09/03 09:54:21;;;;;;;34.42;28.40;;;20.30;71.10;;;;;;5013157;28;20051;-93
2021/09/03 09:56:52;;;;;;;35.65;27.08;;;20.40;70.70;;;;;;5007814;28;20101;-91
2021/09/03 09:59:21;;;;;;;39.22;28.20;;;20.60;70.40;;;;;;5014793;28;20076;-91
2021/09/03 10:01:53;;;;;;;37.58;27.52;;;20.60;70.30;;;;;;5001635;28;20460;-91
2021/09/03 10:04:24;;;;;;;39.90;27.33;;;20.80;69.90;;;;;;5007810;28;20532;-90
2021/09/03 10:06:54;;;;;;;41.80;29.48;;;20.90;69.00;;;;;;5008780;28;20508;-91
2021/09/03 10:09:26;;;;;;;36.25;28.38;;;20.90;68.90;;;;;;4997332;28;20455;-91
2021/09/03 10:11:55;;;;;;;39.45;26.95;;;21.10;69.30;;;;;;4996542;28;20516;-91
2021/09/03 10:14:27;;;;;;;37.47;26.75;;;21.10;68.50;;;;;;5011102;28;20054;-93
2021/09/03 10:16:56;;;;;;;34.03;25.27;;;21.20;68.30;;;;;;5013046;28;20054;-91
2021/09/03 10:19:28;;;;;;;37.35;29.00;;;21.40;68.30;;;;;;5001196;28;20150;-92
2021/09/03 10:22:07;;;;;;;37.33;27.45;;;21.40;68.10;;;;;;4998654;28;20058;-91
2021/09/03 10:24:35;;;;;;;34.75;25.65;;;21.50;68.20;;;;;;5000526;28;20050;-91
2021/09/03 10:27:04;;;;;;;39.80;29.05;;;21.60;68.00;;;;;;5009957;28;20060;-90
2021/09/03 10:29:43;;;;;;;39.15;28.50;;;21.60;68.10;;;;;;4994711;28;20464;-92
2021/09/03 10:32:17;;;;;;;33.17;26.23;;;21.80;68.30;;;;;;5009438;28;20054;-91
2021/09/03 10:34:50;;;;;;;38.65;25.05;;;21.80;67.80;;;;;;5009161;28;20100;-91
2021/09/03 10:37:30;;;;;;;34.67;26.63;;;21.90;67.70;;;;;;5002713;28;20054;-91
2021/09/03 10:40:05;;;;;;;39.30;26.25;;;22.00;67.40;;;;;;4996098;28;20100;-91
2021/09/03 10:42:35;;;;;;;36.92;27.65;;;22.10;67.20;;;;;;5011729;28;20050;-93
2021/09/03 10:45:05;;;;;;;32.67;25.70;;;22.20;66.30;;;;;;4993911;28;20104;-91
2021/09/03 10:47:41;;;;;;;32.55;23.90;;;22.30;66.40;;;;;;4993393;28;20054;-90
2021/09/03 10:50:26;;;;;;;37.80;26.92;;;22.40;66.60;;;;;;4994750;28;20123;-92
2021/09/03 10:53:05;;;;;;;37.80;25.35;;;22.50;66.30;;;;;;5010676;28;20184;-93
2021/09/03 10:55:59;;;;;;;32.70;22.77;;;22.60;66.40;;;;;;5013030;28;20062;-91
2021/09/03 10:58:46;;;;;;;33.20;24.85;;;22.80;65.90;;;;;;5012427;28;20046;-92
2021/09/03 11:01:13;;;;;;;31.98;22.63;;;22.90;65.60;;;;;;5009159;28;20093;-91
2021/09/03 11:04:02;;;;;;;30.52;21.77;;;22.90;64.60;;;;;;5002029;28;20504;-92
2021/09/03 11:06:40;;;;;;;34.80;22.92;;;23.10;65.10;;;;;;5012433;28;20471;-93
2021/09/03 11:09:16;;;;;;;24.80;19.90;;;23.20;65.30;;;;;;5012500;28;20052;-92
2021/09/03 11:11:48;;;;;;;27.10;17.45;;;23.40;65.00;;;;;;5012569;28;20049;-92
2021/09/03 11:14:18;;;;;;;25.88;16.35;;;23.50;64.20;;;;;;5012974;28;20112;-92
2021/09/03 11:16:48;;;;;;;22.73;16.27;;;23.60;62.40;;;;;;5012788;28;20057;-93
2021/09/03 11:19:19;;;;;;;18.67;12.93;;;23.70;62.00;;;;;;5011880;28;20053;-92
2021/09/03 11:21:48;;;;;;;15.82;12.30;;;23.80;61.90;;;;;;5008585;28;20479;-94
2021/09/03 11:24:19;;;;;;;20.83;12.32;;;23.90;61.50;;;;;;4997294;28;20412;-92
2021/09/03 11:26:47;;;;;;;21.90;12.80;;;23.90;61.20;;;;;;5012802;28;20050;-93
2021/09/03 11:29:24;;;;;;;23.23;13.27;;;24.10;61.10;;;;;;5013846;28;20046;-94
2021/09/03 11:31:57;;;;;;;16.52;11.35;;;24.20;59.90;;;;;;5008617;28;20084;-92
2021/09/03 11:34:45;;;;;;;17.88;12.15;;;24.30;59.00;;;;;;5007053;28;20100;-92
2021/09/03 11:37:21;;;;;;;14.93;10.60;;;24.30;59.00;;;;;;5014210;28;20057;-94
2021/09/03 11:39:50;;;;;;;15.07;10.43;;;24.30;58.80;;;;;;5011897;28;20085;-95
2021/09/03 11:42:25;;;;;;;13.88;10.18;;;24.40;57.80;;;;;;5001913;28;20464;-93
2021/09/03 11:45:02;;;;;;;14.25;9.38;;;24.40;58.30;;;;;;4997834;28;20042;-92
2021/09/03 11:47:36;;;;;;;13.73;8.90;;;24.50;58.40;;;;;;4997360;28;20463;-93
2021/09/03 11:50:07;;;;;;;13.75;7.93;;;24.60;57.60;;;;;;4996962;28;20054;-95
2021/09/03 11:52:34;;;;;;;14.10;8.18;;;24.60;56.60;;;;;;5011258;28;20054;-91
2021/09/03 11:55:04;;;;;;;10.85;7.75;;;24.70;56.90;;;;;;5011464;28;20063;-93
2021/09/03 11:57:59;;;;;;;12.63;8.52;;;24.80;56.90;;;;;;5028328;28;20061;-92
2021/09/03 12:00:40;;;;;;;12.52;8.52;;;24.90;56.90;;;;;;5015477;28;20037;-92
2021/09/03 12:03:16;;;;;;;10.48;7.03;;;25.00;57.10;;;;;;5013479;28;20054;-93
2021/09/03 12:05:47;;;;;;;14.88;8.52;;;25.10;56.40;;;;;;4997930;28;20104;-94
2021/09/03 12:08:16;;;;;;;11.27;7.38;;;25.20;55.20;;;;;;5014266;28;20053;-92
2021/09/03 12:10:49;;;;;;;10.18;7.95;;;25.20;54.20;;;;;;5029548;28;20049;-92
2021/09/03 12:13:24;;;;;;;14.67;7.63;;;25.40;54.70;;;;;;5033261;28;20499;-95
2021/09/03 12:15:59;;;;;;;12.07;7.75;;;25.40;55.30;;;;;;5011924;28;20054;-94
2021/09/03 12:18:29;;;;;;;11.38;7.65;;;25.50;55.20;;;;;;5020035;28;20453;-93
2021/09/03 12:21:03;;;;;;;13.52;8.00;;;25.50;54.60;;;;;;5016576;28;20058;-95
2021/09/03 12:23:45;;;;;;;11.23;7.53;;;25.60;54.60;;;;;;4997470;28;20119;-93
2021/09/03 12:26:15;;;;;;;12.15;8.43;;;25.80;54.90;;;;;;5000499;28;20053;-94
2021/09/03 12:28:48;;;;;;;13.23;7.25;;;25.90;54.50;;;;;;4997472;28;20050;-92
2021/09/03 12:31:19;;;;;;;10.68;7.60;;;25.90;54.30;;;;;;5016595;28;20049;-92
2021/09/03 12:33:58;;;;;;;12.15;8.02;;;25.90;54.40;;;;;;5019486;28;20099;-94
2021/09/03 12:36:31;;;;;;;11.88;8.43;;;26.00;53.90;;;;;;5020234;28;20053;-93
2021/09/03 12:39:04;;;;;;;11.90;8.67;;;26.00;53.10;;;;;;5019400;28;20053;-94
2021/09/03 12:41:37;;;;;;;11.63;8.48;;;26.00;53.70;;;;;;5002466;28;20042;-93
2021/09/03 12:44:07;;;;;;;13.27;8.70;;;26.10;53.40;;;;;;5018050;28;20049;-94